Time;durP1;ratioP1;P1;durP2;ratioP2;P2;SDS_P1;SDS_P2;PMS_P1;PMS_P2;Temp;Humidity;BMP_temperature;BMP_pressure;BME280_temperature;BME280_humidity;BME280_pressure;Samples;Min_cycle;Max_cycle;Signal;HPM_P1;HPM_P2
2021/03/16 00:01:47;;;;;;;3.90;3.27;;;4.70;99.90;;;;;;5014683;28;20271;-71
2021/03/16 00:04:12;;;;;;;5.97;3.70;;;4.70;99.90;;;;;;5014768;28;20628;-71
2021/03/16 00:06:38;;;;;;;3.83;3.53;;;4.70;99.90;;;;;;5014603;28;20535;-70
2021/03/16 00:09:03;;;;;;;4.50;3.43;;;4.60;99.90;;;;;;5014945;28;20259;-71
2021/03/16 00:11:29;;;;;;;3.43;3.13;;;4.70;99.90;;;;;;5014654;28;20222;-70
2021/03/16 00:13:54;;;;;;;4.57;3.67;;;4.60;99.90;;;;;;5017108;28;20247;-72
2021/03/16 00:16:20;;;;;;;4.73;4.20;;;4.60;99.90;;;;;;5033766;28;20187;-71
2021/03/16 00:18:46;;;;;;;4.73;3.60;;;4.60;99.90;;;;;;5033318;28;20189;-70
2021/03/16 00:21:11;;;;;;;5.00;3.33;;;4.60;99.90;;;;;;5034146;28;20191;-70
2021/03/16 00:23:36;;;;;;;4.30;3.90;;;4.60;99.90;;;;;;5034221;28;20481;-71
2021/03/16 00:26:02;;;;;;;5.17;3.80;;;4.50;99.90;;;;;;5034137;28;20163;-71
2021/03/16 00:28:28;;;;;;;4.73;4.00;;;4.60;99.90;;;;;;5033977;28;20195;-69
2021/03/16 00:30:53;;;;;;;4.70;4.10;;;4.50;99.90;;;;;;5025592;28;20497;-70
2021/03/16 00:33:19;;;;;;;5.90;3.90;;;4.50;99.90;;;;;;5014008;28;20636;-70
2021/03/16 00:35:44;;;;;;;5.63;4.60;;;4.50;99.90;;;;;;5014209;28;20169;-70
2021/03/16 00:38:10;;;;;;;4.20;3.77;;;4.50;99.90;;;;;;5013967;28;20179;-70
2021/03/16 00:40:35;;;;;;;4.63;4.23;;;4.60;99.90;;;;;;5013867;28;20199;-71
2021/03/16 00:43:00;;;;;;;4.60;3.37;;;4.50;99.90;;;;;;5014182;28;20251;-70
2021/03/16 00:45:26;;;;;;;4.70;4.13;;;4.60;99.90;;;;;;5013769;28;20202;-69
2021/03/16 00:47:52;;;;;;;3.33;3.03;;;4.60;99.90;;;;;;5013655;28;20403;-70
2021/03/16 00:50:17;;;;;;;5.17;3.43;;;4.50;99.90;;;;;;5013824;28;20203;-71
2021/03/16 00:52:43;;;;;;;3.20;2.90;;;4.60;99.90;;;;;;5022730;28;20176;-70
2021/03/16 00:55:09;;;;;;;4.33;3.70;;;4.50;99.90;;;;;;5025111;28;20182;-71
2021/03/16 00:57:34;;;;;;;4.27;3.87;;;4.50;99.90;;;;;;5033238;28;20199;-70
2021/03/16 01:00:00;;;;;;;5.33;3.80;;;4.40;99.90;;;;;;5033333;28;20426;-71
2021/03/16 01:02:26;;;;;;;3.90;3.60;;;4.40;99.90;;;;;;5033414;28;20658;-70
2021/03/16 01:04:51;;;;;;;4.77;4.37;;;4.50;99.90;;;;;;5033526;28;20700;-70
2021/03/16 01:07:17;;;;;;;5.30;3.93;;;4.50;99.90;;;;;;5033009;28;20493;-71
2021/03/16 01:09:42;;;;;;;5.50;4.20;;;4.50;99.90;;;;;;5033161;28;20274;-71
2021/03/16 01:12:08;;;;;;;5.67;3.93;;;4.50;99.90;;;;;;5033209;28;20182;-70
2021/03/16 01:14:34;;;;;;;4.90;4.10;;;4.50;99.90;;;;;;5033065;28;20180;-71
2021/03/16 01:16:59;;;;;;;5.47;4.03;;;4.40;99.90;;;;;;5033073;28;20454;-69
2021/03/16 01:19:25;;;;;;;4.77;4.00;;;4.50;99.90;;;;;;5032928;28;20207;-70
2021/03/16 01:21:51;;;;;;;4.73;4.33;;;4.50;99.90;;;;;;5033234;28;20167;-70
2021/03/16 01:24:16;;;;;;;4.87;4.37;;;4.50;99.90;;;;;;5033208;28;20251;-71
2021/03/16 01:26:42;;;;;;;6.37;5.30;;;4.50;99.90;;;;;;5033172;28;20168;-70
2021/03/16 01:29:07;;;;;;;4.50;4.10;;;4.50;99.90;;;;;;5033066;28;20536;-69
2021/03/16 01:31:33;;;;;;;5.30;4.80;;;4.50;99.90;;;;;;5019317;28;20208;-71
2021/03/16 01:33:58;;;;;;;11.37;5.43;;;4.50;99.90;;;;;;5013618;28;20173;-73
2021/03/16 01:36:24;;;;;;;5.53;4.93;;;4.50;99.90;;;;;;5015495;28;20220;-72
2021/03/16 01:38:49;;;;;;;5.30;4.80;;;4.50;99.90;;;;;;5014818;28;20698;-71
2021/03/16 01:41:15;;;;;;;6.17;4.23;;;4.50;99.90;;;;;;5014170;28;20195;-72
2021/03/16 01:43:40;;;;;;;7.13;5.70;;;4.50;99.90;;;;;;5014728;28;20187;-72
2021/03/16 01:46:07;;;;;;;12.17;7.27;;;4.40;99.90;;;;;;5032676;28;20171;-72
2021/03/16 01:48:35;;;;;;;8.17;6.60;;;4.50;99.90;;;;;;5032411;28;20272;-71
2021/03/16 01:51:03;;;;;;;8.40;6.20;;;4.50;99.90;;;;;;5032648;28;20482;-71
2021/03/16 01:53:29;;;;;;;7.27;6.10;;;4.50;99.90;;;;;;5032276;28;20445;-71
2021/03/16 01:55:56;;;;;;;5.90;5.30;;;4.50;99.90;;;;;;5032686;28;21105;-71
2021/03/16 01:58:22;;;;;;;6.80;6.10;;;4.40;99.90;;;;;;5031834;28;20183;-72
2021/03/16 02:00:47;;;;;;;6.70;6.00;;;4.40;99.90;;;;;;5032425;28;20884;-69
2021/03/16 02:03:13;;;;;;;7.83;6.30;;;4.40;99.90;;;;;;5032442;28;20167;-70
2021/03/16 02:05:40;;;;;;;6.10;5.07;;;4.40;99.90;;;;;;5032594;28;20267;-70
2021/03/16 02:08:22;;;;;;;5.77;5.13;;;4.40;99.90;;;;;;5032146;28;20784;-70
2021/03/16 02:11:07;;;;;;;8.10;5.80;;;4.30;99.90;;;;;;5011328;28;20454;-70
2021/03/16 02:13:35;;;;;;;7.30;6.37;;;4.30;99.90;;;;;;5018645;28;20429;-70
2021/03/16 02:16:09;;;;;;;6.07;5.40;;;4.40;99.90;;;;;;5012199;28;20811;-71
2021/03/16 02:18:39;;;;;;;6.73;5.00;;;4.40;99.90;;;;;;5012250;28;20419;-70
2021/03/16 02:21:08;;;;;;;5.50;5.00;;;4.30;99.90;;;;;;5012356;28;20478;-70
2021/03/16 02:23:55;;;;;;;5.83;4.50;;;4.30;99.90;;;;;;5012328;28;20438;-70
2021/03/16 02:26:27;;;;;;;5.03;4.47;;;4.30;99.90;;;;;;5011989;28;20403;-69
2021/03/16 02:29:04;;;;;;;6.33;4.40;;;4.30;99.90;;;;;;5012252;28;20404;-72
2021/03/16 02:31:32;;;;;;;5.23;4.50;;;4.30;99.90;;;;;;5024874;28;21190;-71
2021/03/16 02:34:01;;;;;;;10.90;4.07;;;4.20;99.90;;;;;;5031835;28;20410;-71
2021/03/16 02:36:27;;;;;;;5.37;4.47;;;4.20;99.90;;;;;;5031669;28;20446;-71
2021/03/16 02:38:55;;;;;;;6.77;4.67;;;4.20;99.90;;;;;;5031823;28;20757;-71
2021/03/16 02:41:22;;;;;;;6.10;3.83;;;4.20;99.90;;;;;;5031594;28;20837;-72
2021/03/16 02:43:48;;;;;;;7.57;4.93;;;4.30;99.90;;;;;;5031406;28;20411;-71
2021/03/16 02:46:14;;;;;;;5.50;5.00;;;4.30;99.90;;;;;;5031426;28;20824;-72
2021/03/16 02:48:43;;;;;;;5.93;3.40;;;4.30;99.90;;;;;;5031701;28;20168;-71
2021/03/16 02:51:10;;;;;;;5.30;4.03;;;4.30;99.90;;;;;;5031601;28;20488;-70
2021/03/16 02:53:37;;;;;;;5.47;4.10;;;4.20;99.90;;;;;;5031533;28;20509;-70
2021/03/16 02:56:05;;;;;;;5.90;4.43;;;4.30;99.90;;;;;;5031328;28;20406;-72
2021/03/16 02:58:33;;;;;;;5.80;4.83;;;4.30;99.90;;;;;;5031798;28;20395;-70
2021/03/16 03:00:59;;;;;;;5.27;3.97;;;4.20;99.90;;;;;;5028350;28;20437;-71
2021/03/16 03:03:26;;;;;;;4.60;4.20;;;4.20;99.90;;;;;;5028509;28;20765;-72
2021/03/16 03:05:53;;;;;;;3.83;3.40;;;4.20;99.90;;;;;;5018921;28;20454;-71
2021/03/16 03:08:22;;;;;;;5.00;4.60;;;4.20;99.90;;;;;;5023511;28;20410;-73
2021/03/16 03:10:47;;;;;;;8.03;3.37;;;4.20;99.90;;;;;;5025721;28;20443;-72
2021/03/16 03:13:13;;;;;;;8.30;3.60;;;4.20;99.90;;;;;;5030616;28;20904;-72
2021/03/16 03:15:39;;;;;;;5.20;4.63;;;4.20;99.90;;;;;;5031699;28;20214;-70
2021/03/16 03:18:04;;;;;;;5.63;3.93;;;4.20;99.90;;;;;;5031131;28;20207;-69
2021/03/16 03:20:34;;;;;;;6.00;4.30;;;4.20;99.90;;;;;;5031634;28;20513;-70
2021/03/16 03:23:05;;;;;;;3.93;3.63;;;4.20;99.90;;;;;;5031446;28;20223;-71
2021/03/16 03:25:45;;;;;;;5.77;4.80;;;4.20;99.90;;;;;;5031423;28;20401;-69
2021/03/16 03:28:20;;;;;;;5.40;3.67;;;4.20;99.90;;;;;;5022966;28;20602;-70
2021/03/16 03:30:46;;;;;;;5.27;4.73;;;4.10;99.90;;;;;;5024182;28;21117;-69
2021/03/16 03:33:13;;;;;;;4.93;4.20;;;4.10;99.90;;;;;;5011887;28;20423;-72
2021/03/16 03:35:39;;;;;;;6.00;3.60;;;4.10;99.90;;;;;;5011815;28;20407;-70
2021/03/16 03:38:06;;;;;;;6.10;4.50;;;4.10;99.90;;;;;;5011585;28;20631;-72
2021/03/16 03:40:32;;;;;;;8.00;4.40;;;4.10;99.90;;;;;;5017841;28;20520;-70
2021/03/16 03:43:01;;;;;;;4.87;3.97;;;4.00;99.90;;;;;;5031157;28;20406;-71
2021/03/16 03:45:28;;;;;;;7.90;4.27;;;4.00;99.90;;;;;;5031095;28;20410;-70
2021/03/16 03:48:00;;;;;;;4.97;4.30;;;4.00;99.90;;;;;;5031021;28;20411;-70
2021/03/16 03:50:26;;;;;;;5.60;5.03;;;4.00;99.90;;;;;;5027576;28;20439;-70
2021/03/16 03:52:53;;;;;;;5.53;4.63;;;4.00;99.90;;;;;;5026526;28;20406;-70
2021/03/16 03:55:21;;;;;;;5.13;3.30;;;4.00;99.90;;;;;;5033681;28;20168;-71
2021/03/16 03:57:48;;;;;;;5.23;3.50;;;3.90;99.90;;;;;;5034588;28;20512;-70
2021/03/16 04:00:15;;;;;;;3.80;3.40;;;3.90;99.90;;;;;;5034471;28;20429;-71
2021/03/16 04:02:41;;;;;;;7.27;4.30;;;4.00;99.90;;;;;;5034669;28;20406;-69
2021/03/16 04:05:08;;;;;;;5.73;3.13;;;3.90;99.90;;;;;;5034709;28;20414;-71
2021/03/16 04:07:35;;;;;;;4.90;3.40;;;4.00;99.90;;;;;;5034415;28;20767;-69
2021/03/16 04:10:00;;;;;;;4.07;3.50;;;4.00;99.90;;;;;;5034570;28;20769;-69
2021/03/16 04:12:26;;;;;;;5.83;3.60;;;4.00;99.90;;;;;;5034408;28;20510;-69
2021/03/16 04:14:52;;;;;;;9.57;3.70;;;4.00;99.90;;;;;;5027274;28;20196;-69
2021/03/16 04:17:17;;;;;;;10.17;4.23;;;4.00;99.90;;;;;;5032915;28;20191;-69
2021/03/16 04:19:44;;;;;;;4.37;3.20;;;4.00;99.90;;;;;;5034280;28;20422;-72
2021/03/16 04:22:10;;;;;;;6.10;3.37;;;4.00;99.90;;;;;;5034138;28;20195;-71
2021/03/16 04:24:36;;;;;;;5.17;3.50;;;4.00;99.90;;;;;;5034155;28;20399;-71
2021/03/16 04:27:02;;;;;;;5.67;3.63;;;3.90;99.90;;;;;;5033838;28;20476;-70
2021/03/16 04:29:27;;;;;;;5.73;3.50;;;3.90;99.90;;;;;;5033793;28;20197;-73
2021/03/16 04:31:52;;;;;;;5.43;3.63;;;3.90;99.90;;;;;;5018205;28;20616;-70
2021/03/16 04:34:18;;;;;;;3.53;2.97;;;3.90;99.90;;;;;;5014360;28;20173;-71
2021/03/16 04:36:43;;;;;;;3.73;3.33;;;3.90;99.90;;;;;;5013756;28;20566;-71
2021/03/16 04:39:09;;;;;;;4.40;3.37;;;3.90;99.90;;;;;;5014260;28;20172;-70
2021/03/16 04:41:34;;;;;;;5.83;3.60;;;3.90;99.90;;;;;;5014057;28;20207;-71
2021/03/16 04:44:00;;;;;;;9.00;4.07;;;4.00;99.90;;;;;;5013956;28;20172;-70
2021/03/16 04:46:25;;;;;;;5.63;3.40;;;4.00;99.90;;;;;;5013750;28;20172;-70
2021/03/16 04:48:51;;;;;;;5.13;3.27;;;4.00;99.90;;;;;;5014755;28;20199;-70
2021/03/16 04:51:16;;;;;;;4.70;3.50;;;3.90;99.90;;;;;;5033597;28;20306;-71
2021/03/16 04:53:42;;;;;;;4.27;3.30;;;3.90;99.90;;;;;;5033693;28;20167;-71
2021/03/16 04:56:07;;;;;;;4.43;2.90;;;3.90;99.90;;;;;;5033522;28;20243;-70
2021/03/16 04:58:32;;;;;;;4.40;3.50;;;3.90;99.90;;;;;;5033332;28;20172;-71
2021/03/16 05:00:58;;;;;;;5.20;3.90;;;3.90;99.90;;;;;;5033289;28;20237;-72
2021/03/16 05:03:23;;;;;;;5.47;2.67;;;3.90;99.90;;;;;;5033644;28;20533;-70
2021/03/16 05:05:49;;;;;;;3.57;3.20;;;4.00;99.90;;;;;;5032999;28;20210;-70
2021/03/16 05:08:14;;;;;;;7.00;3.37;;;3.90;99.90;;;;;;5033328;28;20263;-70
2021/03/16 05:10:40;;;;;;;4.43;4.03;;;3.90;99.90;;;;;;5033292;28;20258;-70
2021/03/16 05:13:05;;;;;;;6.70;4.03;;;3.90;99.90;;;;;;5033211;28;20255;-71
2021/03/16 05:15:31;;;;;;;5.00;3.30;;;4.00;99.90;;;;;;5033131;28;20164;-70
2021/03/16 05:17:56;;;;;;;3.47;3.17;;;4.00;99.90;;;;;;5033017;28;20203;-71
2021/03/16 05:20:22;;;;;;;4.70;3.83;;;4.00;99.90;;;;;;5033062;28;20187;-70
2021/03/16 05:22:49;;;;;;;5.40;3.53;;;4.00;99.90;;;;;;5033335;28;20199;-70
2021/03/16 05:25:15;;;;;;;4.47;3.90;;;4.00;99.90;;;;;;5033067;28;20167;-71
2021/03/16 05:27:40;;;;;;;7.10;3.57;;;4.10;99.90;;;;;;5027734;28;20490;-70
2021/03/16 05:30:06;;;;;;;6.13;3.47;;;4.10;99.90;;;;;;5028497;28;20215;-70
2021/03/16 05:32:32;;;;;;;7.13;3.47;;;4.10;99.90;;;;;;5013586;28;20168;-70
2021/03/16 05:34:58;;;;;;;5.27;3.20;;;4.10;99.90;;;;;;5013391;28;20430;-70
2021/03/16 05:37:23;;;;;;;2.60;2.40;;;4.00;99.90;;;;;;5013683;28;20188;-72
2021/03/16 05:39:49;;;;;;;4.90;2.93;;;4.00;99.90;;;;;;5023547;28;20208;-71
2021/03/16 05:42:17;;;;;;;2.77;2.53;;;4.00;99.90;;;;;;5024050;28;20184;-72
2021/03/16 05:44:44;;;;;;;4.77;3.83;;;4.00;99.90;;;;;;5020770;28;20164;-70
2021/03/16 05:47:11;;;;;;;2.80;2.33;;;4.00;99.90;;;;;;5012843;28;20427;-70
2021/03/16 05:49:37;;;;;;;8.23;2.73;;;4.00;99.90;;;;;;5012878;28;20422;-69
2021/03/16 05:52:05;;;;;;;2.67;2.13;;;4.00;99.90;;;;;;5013091;28;20429;-70
2021/03/16 05:54:31;;;;;;;4.60;2.23;;;4.10;99.90;;;;;;5011526;28;20510;-71
2021/03/16 05:56:57;;;;;;;4.97;2.40;;;4.00;99.90;;;;;;5012723;28;20454;-70
2021/03/16 05:59:24;;;;;;;2.67;2.47;;;4.00;99.90;;;;;;5012647;28;20918;-72
2021/03/16 06:01:49;;;;;;;3.80;3.00;;;4.00;99.90;;;;;;5012878;28;20511;-73
2021/03/16 06:04:15;;;;;;;4.10;2.60;;;3.90;99.90;;;;;;5012689;28;20854;-70
2021/03/16 06:06:41;;;;;;;2.50;2.30;;;4.00;99.90;;;;;;5012568;28;20255;-70
2021/03/16 06:09:06;;;;;;;2.97;2.37;;;4.00;99.90;;;;;;5012393;28;20175;-70
2021/03/16 06:11:33;;;;;;;3.57;3.00;;;4.10;99.90;;;;;;5012500;28;20935;-71
2021/03/16 06:14:00;;;;;;;4.93;3.00;;;4.10;99.90;;;;;;4994974;28;20524;-70
2021/03/16 06:16:25;;;;;;;6.53;3.40;;;3.90;99.90;;;;;;5012054;28;20529;-70
2021/03/16 06:18:51;;;;;;;4.63;3.20;;;4.00;99.90;;;;;;5012134;28;20439;-70
2021/03/16 06:21:19;;;;;;;3.27;2.63;;;4.00;99.90;;;;;;5012591;28;20190;-71
2021/03/16 06:23:59;;;;;;;3.97;3.27;;;4.00;99.90;;;;;;4995421;28;20801;-71
2021/03/16 06:26:26;;;;;;;4.83;3.57;;;4.00;99.90;;;;;;5019761;28;20413;-70
2021/03/16 06:29:03;;;;;;;3.83;3.10;;;4.00;99.90;;;;;;5032185;28;20406;-71
2021/03/16 06:31:28;;;;;;;3.47;2.80;;;4.10;99.90;;;;;;5025053;28;20468;-72
2021/03/16 06:33:54;;;;;;;2.90;2.67;;;4.10;99.90;;;;;;5023481;28;20406;-71
2021/03/16 06:36:28;;;;;;;5.30;3.40;;;4.10;99.90;;;;;;5028999;28;20230;-70
2021/03/16 06:38:54;;;;;;;3.70;3.17;;;4.10;99.90;;;;;;5027446;28;20172;-70
2021/03/16 06:41:20;;;;;;;3.67;2.70;;;4.10;99.90;;;;;;5023562;28;20963;-70
2021/03/16 06:43:53;;;;;;;3.90;3.50;;;4.10;99.90;;;;;;5032006;28;20596;-70
2021/03/16 06:46:36;;;;;;;4.53;3.00;;;4.10;99.90;;;;;;5014365;28;20423;-71
2021/03/16 06:49:15;;;;;;;7.43;3.20;;;4.10;99.90;;;;;;5031877;28;20421;-70
2021/03/16 06:51:40;;;;;;;9.20;3.80;;;4.10;99.90;;;;;;5031846;28;20774;-70
2021/03/16 06:54:14;;;;;;;4.70;4.30;;;4.10;99.90;;;;;;5023655;28;20406;-69
2021/03/16 06:56:40;;;;;;;4.50;2.93;;;4.10;99.90;;;;;;5031455;28;20586;-70
2021/03/16 06:59:07;;;;;;;4.40;3.50;;;4.10;99.90;;;;;;5031368;28;20394;-71
2021/03/16 07:01:34;;;;;;;5.33;3.70;;;4.20;99.90;;;;;;5031229;28;20454;-71
2021/03/16 07:04:10;;;;;;;3.93;3.53;;;4.20;99.90;;;;;;5032087;28;20428;-71
2021/03/16 07:06:36;;;;;;;5.50;3.43;;;4.20;99.90;;;;;;5014294;28;20410;-70
2021/03/16 07:09:02;;;;;;;3.30;2.80;;;4.20;99.90;;;;;;5031784;28;20817;-70
2021/03/16 07:11:30;;;;;;;4.40;3.60;;;4.20;99.90;;;;;;5031496;28;20195;-70
2021/03/16 07:13:57;;;;;;;4.50;2.80;;;4.20;99.90;;;;;;5031633;28;20172;-71
2021/03/16 07:16:23;;;;;;;3.37;3.07;;;4.10;99.90;;;;;;5022826;28;20517;-70
2021/03/16 07:18:51;;;;;;;2.73;2.53;;;4.20;99.90;;;;;;5031526;28;20417;-70
2021/03/16 07:21:16;;;;;;;9.67;3.57;;;4.30;99.90;;;;;;5023126;28;20200;-70
2021/03/16 07:23:50;;;;;;;4.00;3.20;;;4.30;99.90;;;;;;5031409;28;20406;-70
2021/03/16 07:26:17;;;;;;;9.83;4.70;;;4.40;99.90;;;;;;5024886;28;20179;-72
2021/03/16 07:28:44;;;;;;;5.07;2.77;;;4.50;99.90;;;;;;5013237;28;20403;-71
2021/03/16 07:31:10;;;;;;;6.07;3.67;;;4.60;99.90;;;;;;5025205;28;20456;-75
2021/03/16 07:33:37;;;;;;;12.30;3.47;;;4.60;99.90;;;;;;5035562;28;20777;-72
2021/03/16 07:36:03;;;;;;;6.83;4.93;;;4.60;99.90;;;;;;5034968;28;20481;-70
2021/03/16 07:38:29;;;;;;;10.37;7.40;;;4.70;99.90;;;;;;5033592;28;20429;-70
2021/03/16 07:40:55;;;;;;;3.47;2.63;;;5.00;99.90;;;;;;5034320;28;20445;-71
2021/03/16 07:43:36;;;;;;;5.70;3.47;;;4.90;99.90;;;;;;5034437;28;20948;-70
2021/03/16 07:46:21;;;;;;;4.83;3.10;;;4.70;99.90;;;;;;5034801;28;20406;-72
2021/03/16 07:48:47;;;;;;;3.53;2.40;;;4.80;99.90;;;;;;5023554;28;21066;-72
2021/03/16 07:51:17;;;;;;;3.73;2.83;;;4.90;99.90;;;;;;5032956;28;20806;-69
2021/03/16 07:53:56;;;;;;;4.90;3.20;;;4.80;99.90;;;;;;5034800;28;20399;-72
2021/03/16 07:56:26;;;;;;;3.60;3.30;;;4.60;99.90;;;;;;5034254;28;20457;-71
2021/03/16 07:58:52;;;;;;;6.03;3.50;;;4.40;99.90;;;;;;5025178;28;20407;-71
2021/03/16 08:01:17;;;;;;;5.63;3.47;;;4.60;99.90;;;;;;5015119;28;20478;-71
2021/03/16 08:03:43;;;;;;;3.53;2.87;;;4.70;99.90;;;;;;5015581;28;20192;-71
2021/03/16 08:06:23;;;;;;;4.20;3.27;;;4.80;99.90;;;;;;5015144;28;20602;-71
2021/03/16 08:08:49;;;;;;;5.50;3.03;;;4.60;99.90;;;;;;5013758;28;20602;-70
2021/03/16 08:11:16;;;;;;;6.83;3.67;;;4.70;99.90;;;;;;5015213;28;20434;-72
2021/03/16 08:13:57;;;;;;;5.00;2.80;;;4.60;99.90;;;;;;4997822;28;20418;-71
2021/03/16 08:16:37;;;;;;;4.00;3.70;;;4.40;99.90;;;;;;5028890;28;20536;-70
2021/03/16 08:19:09;;;;;;;7.13;3.07;;;4.40;99.90;;;;;;5035060;28;20394;-71
2021/03/16 08:21:39;;;;;;;3.40;3.10;;;4.40;99.90;;;;;;5019396;28;20808;-72
2021/03/16 08:24:14;;;;;;;3.17;2.47;;;4.50;99.90;;;;;;5025849;28;20926;-72
2021/03/16 08:26:53;;;;;;;4.93;2.90;;;4.70;99.90;;;;;;5034249;28;20479;-71
2021/03/16 08:29:26;;;;;;;4.03;3.23;;;4.70;99.90;;;;;;5016489;28;20418;-72
2021/03/16 08:31:54;;;;;;;6.40;2.87;;;4.70;99.90;;;;;;5034365;28;20422;-73
2021/03/16 08:34:22;;;;;;;2.77;2.57;;;4.60;99.90;;;;;;5034248;28;20402;-72
2021/03/16 08:36:47;;;;;;;4.33;3.33;;;4.90;99.90;;;;;;5033988;28;20460;-71
2021/03/16 08:39:21;;;;;;;2.50;2.20;;;4.90;99.90;;;;;;5034114;28;20414;-71
2021/03/16 08:41:55;;;;;;;3.73;2.70;;;4.80;99.90;;;;;;5033649;28;20212;-71
2021/03/16 08:44:20;;;;;;;4.70;3.27;;;4.90;99.90;;;;;;5032634;28;20410;-71
2021/03/16 08:46:46;;;;;;;2.63;2.43;;;4.80;99.90;;;;;;5033808;28;20763;-71
2021/03/16 08:49:23;;;;;;;4.90;2.60;;;4.80;99.90;;;;;;5033867;28;20765;-71
2021/03/16 08:51:49;;;;;;;3.23;2.60;;;4.90;99.90;;;;;;5025804;28;20171;-70
2021/03/16 08:54:28;;;;;;;4.80;2.63;;;4.90;99.90;;;;;;5034059;28;20409;-71
2021/03/16 08:56:54;;;;;;;3.50;2.53;;;5.00;99.90;;;;;;5033784;28;20567;-71
2021/03/16 08:59:23;;;;;;;6.77;2.93;;;5.20;99.90;;;;;;5033824;28;20920;-70
2021/03/16 09:01:50;;;;;;;5.57;2.63;;;5.30;99.90;;;;;;5033702;28;20441;-73
2021/03/16 09:04:17;;;;;;;4.10;3.00;;;5.50;99.90;;;;;;5034143;28;20784;-71
2021/03/16 09:06:48;;;;;;;5.73;4.17;;;5.60;99.90;;;;;;5033589;28;20433;-72
2021/03/16 09:09:14;;;;;;;4.40;2.63;;;5.70;99.90;;;;;;5016059;28;20448;-72
2021/03/16 09:11:42;;;;;;;3.30;2.67;;;5.40;99.90;;;;;;5033828;28;20422;-71
2021/03/16 09:14:13;;;;;;;3.17;2.90;;;5.20;99.90;;;;;;5033765;28;20159;-71
2021/03/16 09:17:06;;;;;;;5.50;2.73;;;5.30;99.90;;;;;;5033352;28;20504;-71
2021/03/16 09:19:32;;;;;;;3.93;2.83;;;5.20;99.90;;;;;;5031353;28;20536;-70
2021/03/16 09:22:01;;;;;;;2.63;2.43;;;5.30;99.90;;;;;;5033375;28;20429;-71
2021/03/16 09:24:30;;;;;;;5.70;2.77;;;5.20;99.90;;;;;;5033502;28;20422;-72
2021/03/16 09:26:59;;;;;;;12.40;3.20;;;5.40;99.90;;;;;;5021408;28;20503;-73
2021/03/16 09:29:30;;;;;;;5.57;2.60;;;5.30;99.90;;;;;;5017822;28;20793;-72
2021/03/16 09:32:01;;;;;;;3.77;2.93;;;5.90;99.90;;;;;;5012879;28;20926;-71
2021/03/16 09:34:27;;;;;;;6.83;2.23;;;6.20;99.90;;;;;;5013696;28;20415;-72
2021/03/16 09:36:58;;;;;;;3.17;2.20;;;6.90;99.90;;;;;;5013366;28;20849;-71
2021/03/16 09:39:23;;;;;;;3.67;2.43;;;6.60;99.90;;;;;;5014169;28;20430;-71
2021/03/16 09:41:57;;;;;;;2.87;2.30;;;6.40;99.90;;;;;;5016667;28;21070;-72
2021/03/16 09:44:46;;;;;;;5.23;2.20;;;6.40;99.90;;;;;;5001484;28;20169;-71
2021/03/16 09:47:11;;;;;;;5.20;2.30;;;6.20;99.90;;;;;;5014892;28;20748;-71
2021/03/16 09:49:39;;;;;;;2.70;2.50;;;6.90;99.90;;;;;;5019916;28;20502;-71
2021/03/16 09:52:10;;;;;;;4.90;1.87;;;6.90;99.90;;;;;;5033071;28;20171;-71
2021/03/16 09:54:44;;;;;;;3.33;2.37;;;7.30;99.90;;;;;;5015554;28;20423;-76
2021/03/16 09:57:14;;;;;;;4.33;2.40;;;7.30;99.90;;;;;;5032123;28;20449;-72
2021/03/16 09:59:45;;;;;;;3.10;1.97;;;6.80;99.90;;;;;;5032599;28;20399;-70
2021/03/16 10:02:11;;;;;;;3.37;2.47;;;6.50;99.90;;;;;;5019364;28;20443;-71
2021/03/16 10:04:46;;;;;;;2.47;2.20;;;6.80;99.90;;;;;;5032794;28;20414;-70
2021/03/16 10:07:22;;;;;;;2.27;1.90;;;6.80;99.90;;;;;;5032884;28;20434;-71
2021/03/16 10:09:48;;;;;;;4.50;1.70;;;7.10;99.90;;;;;;5033089;28;20727;-71
2021/03/16 10:12:18;;;;;;;3.03;2.17;;;7.10;99.90;;;;;;5032318;28;20430;-71
2021/03/16 10:14:47;;;;;;;3.37;2.20;;;7.00;99.90;;;;;;5032279;28;20188;-70
2021/03/16 10:17:23;;;;;;;2.00;1.90;;;7.10;99.90;;;;;;5031998;28;20450;-70
2021/03/16 10:20:07;;;;;;;1.87;1.77;;;6.90;99.90;;;;;;5031960;28;20525;-71
2021/03/16 10:22:35;;;;;;;2.60;2.40;;;6.80;99.90;;;;;;5002062;28;20439;-72
2021/03/16 10:25:04;;;;;;;5.63;2.67;;;6.90;99.90;;;;;;5014735;28;20415;-71
2021/03/16 10:27:32;;;;;;;4.03;2.17;;;7.10;99.90;;;;;;5031785;28;20452;-71
2021/03/16 10:30:07;;;;;;;2.80;2.00;;;7.20;99.90;;;;;;5023265;28;20530;-72
2021/03/16 10:32:34;;;;;;;1.83;1.67;;;7.00;99.90;;;;;;5029966;28;20944;-72
2021/03/16 10:34:59;;;;;;;4.07;2.10;;;7.20;99.90;;;;;;5028269;28;20435;-72
2021/03/16 10:37:25;;;;;;;1.60;1.50;;;7.20;99.90;;;;;;5031905;28;20450;-72
2021/03/16 10:39:52;;;;;;;4.37;3.97;;;7.20;99.90;;;;;;5029896;28;20239;-72
2021/03/16 10:42:18;;;;;;;2.87;2.40;;;7.10;99.90;;;;;;5014260;28;20632;-70
2021/03/16 10:44:44;;;;;;;4.33;2.13;;;7.00;99.90;;;;;;5029458;28;20464;-71
2021/03/16 10:47:10;;;;;;;2.60;2.17;;;7.00;99.90;;;;;;5011902;28;20453;-71
2021/03/16 10:49:36;;;;;;;2.13;1.93;;;7.40;99.90;;;;;;5010524;28;20176;-72
2021/03/16 10:52:02;;;;;;;4.07;2.17;;;7.60;99.90;;;;;;5012199;28;20172;-71
2021/03/16 10:54:28;;;;;;;4.03;1.73;;;8.00;99.90;;;;;;5011805;28;20426;-71
2021/03/16 10:56:56;;;;;;;2.50;1.70;;;8.00;99.90;;;;;;5020437;28;20449;-72
2021/03/16 10:59:22;;;;;;;1.80;1.63;;;7.80;99.90;;;;;;5023098;28;20255;-72
2021/03/16 11:01:51;;;;;;;1.30;1.20;;;8.10;99.90;;;;;;5031667;28;20477;-71
2021/03/16 11:04:18;;;;;;;2.20;1.57;;;8.20;99.90;;;;;;5034124;28;20414;-70
2021/03/16 11:06:45;;;;;;;2.50;2.00;;;8.30;99.90;;;;;;5035745;28;20406;-69
2021/03/16 11:09:12;;;;;;;1.53;1.30;;;8.20;99.90;;;;;;5035587;28;20929;-70
2021/03/16 11:11:37;;;;;;;1.40;1.30;;;8.20;99.90;;;;;;5035587;28;20912;-69
2021/03/16 11:14:02;;;;;;;1.67;1.20;;;8.20;99.90;;;;;;5043749;28;20412;-72
2021/03/16 11:16:28;;;;;;;9.10;5.97;;;8.30;99.90;;;;;;5054965;28;20704;-70
2021/03/16 11:18:53;;;;;;;8.73;6.17;;;8.40;99.90;;;;;;5055269;28;20593;-70
2021/03/16 11:21:19;;;;;;;13.80;8.27;;;8.20;99.90;;;;;;5023938;28;20192;-70
2021/03/16 11:23:44;;;;;;;3.13;2.20;;;7.90;99.90;;;;;;5003288;28;20172;-71
2021/03/16 11:26:10;;;;;;;3.63;2.27;;;7.90;99.90;;;;;;5015360;28;20172;-70
2021/03/16 11:28:35;;;;;;;2.97;1.80;;;7.50;99.90;;;;;;5015422;28;20177;-70
2021/03/16 11:31:02;;;;;;;3.47;2.00;;;7.30;99.90;;;;;;5032652;28;20208;-70
2021/03/16 11:33:27;;;;;;;5.20;2.80;;;7.40;99.90;;;;;;5035053;28;20159;-69
2021/03/16 11:35:53;;;;;;;3.53;2.53;;;7.40;99.90;;;;;;5035086;28;20769;-71
2021/03/16 11:38:18;;;;;;;5.77;3.73;;;7.30;99.90;;;;;;5033218;28;20532;-70
2021/03/16 11:40:44;;;;;;;2.90;2.07;;;7.60;99.90;;;;;;5015636;28;20184;-71
2021/03/16 11:43:09;;;;;;;2.43;1.50;;;8.10;99.90;;;;;;5027461;28;20176;-70
2021/03/16 11:45:35;;;;;;;4.30;2.00;;;8.00;99.90;;;;;;5014975;28;20706;-70
2021/03/16 11:48:00;;;;;;;4.00;2.30;;;8.10;99.90;;;;;;5025614;28;20180;-73
2021/03/16 11:50:26;;;;;;;1.83;1.63;;;8.10;99.90;;;;;;5013819;28;20691;-71
2021/03/16 11:52:51;;;;;;;2.67;2.20;;;8.00;99.90;;;;;;5028197;28;20230;-72
2021/03/16 11:55:17;;;;;;;3.00;2.07;;;8.10;99.90;;;;;;5034935;28;20171;-72
2021/03/16 11:57:42;;;;;;;2.27;2.00;;;8.00;99.90;;;;;;5027987;28;20223;-71
2021/03/16 12:00:09;;;;;;;2.57;1.90;;;7.90;99.90;;;;;;5017162;28;20234;-70
2021/03/16 12:02:35;;;;;;;3.77;2.73;;;7.90;99.90;;;;;;5025514;28;20230;-72
2021/03/16 12:05:03;;;;;;;2.30;2.10;;;8.10;99.90;;;;;;5034651;28;20414;-69
2021/03/16 12:07:28;;;;;;;3.87;2.63;;;7.80;99.90;;;;;;5034283;28;20509;-72
2021/03/16 12:09:54;;;;;;;4.53;2.93;;;8.00;99.90;;;;;;5034706;28;20465;-76
2021/03/16 12:12:19;;;;;;;2.20;2.00;;;8.30;99.90;;;;;;5035787;28;20199;-72
2021/03/16 12:14:45;;;;;;;2.27;1.97;;;7.90;99.90;;;;;;5034169;28;20194;-78
2021/03/16 12:17:11;;;;;;;2.13;1.93;;;7.90;99.90;;;;;;5018049;28;20191;-70
2021/03/16 12:19:37;;;;;;;55.80;35.40;;;7.90;99.90;;;;;;5034787;28;20175;-72
2021/03/16 12:22:03;;;;;;;3.70;2.07;;;8.40;99.90;;;;;;5034313;28;20415;-70
2021/03/16 12:24:29;;;;;;;4.00;2.77;;;8.20;99.90;;;;;;5034333;28;20415;-70
2021/03/16 12:26:54;;;;;;;5.60;2.97;;;8.00;99.90;;;;;;5034644;28;20403;-74
2021/03/16 12:29:20;;;;;;;3.03;2.30;;;8.50;99.90;;;;;;5029958;28;20278;-73
2021/03/16 12:31:45;;;;;;;2.30;2.10;;;8.50;99.90;;;;;;5029647;28;20211;-72
2021/03/16 12:34:11;;;;;;;3.80;2.33;;;8.50;99.90;;;;;;5030613;28;20525;-72
2021/03/16 12:36:36;;;;;;;4.50;3.13;;;8.40;99.90;;;;;;5023438;28;20232;-72
2021/03/16 12:39:02;;;;;;;2.73;2.07;;;8.10;99.90;;;;;;5027160;28;20184;-73
2021/03/16 12:41:28;;;;;;;5.23;3.27;;;7.70;99.90;;;;;;5031541;28;20250;-71
2021/03/16 12:43:53;;;;;;;3.13;2.70;;;7.90;99.90;;;;;;5033785;28;20736;-75
2021/03/16 12:46:19;;;;;;;4.07;2.77;;;7.70;99.90;;;;;;5033929;28;20168;-72
2021/03/16 12:48:44;;;;;;;4.77;2.30;;;7.70;99.90;;;;;;5034036;28;20163;-73
2021/03/16 12:51:10;;;;;;;2.23;2.03;;;7.60;99.90;;;;;;5033507;28;20550;-72
2021/03/16 12:53:36;;;;;;;3.03;2.57;;;7.90;99.90;;;;;;5033660;28;20190;-71
2021/03/16 12:56:01;;;;;;;3.20;2.10;;;8.20;99.90;;;;;;5033719;28;20407;-72
2021/03/16 12:58:26;;;;;;;3.60;2.70;;;8.40;99.90;;;;;;5033149;28;20203;-71
2021/03/16 13:00:52;;;;;;;3.57;2.87;;;8.40;99.90;;;;;;5032676;28;20284;-71